Time;durP1;ratioP1;P1;durP2;ratioP2;P2;SDS_P1;SDS_P2;PMS_P1;PMS_P2;Temp;Humidity;BMP_temperature;BMP_pressure;BME280_temperature;BME280_humidity;BME280_pressure;Samples;Min_cycle;Max_cycle;Signal;HPM_P1;HPM_P2
2024/01/30 00:01:15;;;;;;;3.78;2.78;;;6.20;99.90;;;;;;4986565;28;20053;-72
2024/01/30 00:03:41;;;;;;;4.40;2.22;;;6.30;99.90;;;;;;4991654;28;20104;-72
2024/01/30 00:06:08;;;;;;;5.10;3.35;;;6.20;99.90;;;;;;4990178;28;20041;-72
2024/01/30 00:08:34;;;;;;;6.50;3.25;;;6.20;99.90;;;;;;4989900;28;20052;-73
2024/01/30 00:11:00;;;;;;;7.15;4.25;;;6.20;99.90;;;;;;4989962;28;20038;-72
2024/01/30 00:13:26;;;;;;;7.60;3.47;;;6.30;99.90;;;;;;4990682;28;20121;-72
2024/01/30 00:15:52;;;;;;;2.72;2.33;;;6.40;99.90;;;;;;4991856;28;20038;-73
2024/01/30 00:18:18;;;;;;;7.78;3.55;;;6.40;99.90;;;;;;4987685;28;20048;-72
2024/01/30 00:20:44;;;;;;;5.68;3.38;;;6.40;99.90;;;;;;4991614;28;20034;-72
2024/01/30 00:23:10;;;;;;;4.90;3.30;;;6.40;99.90;;;;;;4991502;28;20044;-72
2024/01/30 00:25:36;;;;;;;8.95;2.83;;;6.40;99.90;;;;;;4995729;28;20124;-72
2024/01/30 00:28:01;;;;;;;4.78;2.58;;;6.50;99.90;;;;;;4992750;28;20065;-72
2024/01/30 00:30:27;;;;;;;6.55;3.88;;;6.50;99.90;;;;;;4994633;28;20030;-72
2024/01/30 00:32:54;;;;;;;4.60;3.15;;;6.50;99.90;;;;;;4989781;28;20038;-72
2024/01/30 00:35:21;;;;;;;5.55;3.10;;;6.50;99.90;;;;;;4991106;28;20073;-73
2024/01/30 00:37:48;;;;;;;5.90;3.22;;;6.60;99.90;;;;;;4989314;28;20052;-72
2024/01/30 00:40:15;;;;;;;5.13;2.90;;;6.60;99.90;;;;;;4978914;28;20044;-73
2024/01/30 00:42:44;;;;;;;3.38;2.55;;;6.60;99.90;;;;;;4971974;28;20395;-73
2024/01/30 00:45:16;;;;;;;2.80;2.35;;;6.60;99.90;;;;;;4988708;28;20465;-72
2024/01/30 00:47:43;;;;;;;4.40;3.35;;;6.70;99.90;;;;;;4991083;28;20041;-72
2024/01/30 00:50:09;;;;;;;3.40;1.77;;;6.70;99.90;;;;;;4989829;28;20042;-72
2024/01/30 00:52:35;;;;;;;4.95;2.92;;;6.70;99.90;;;;;;4989484;28;20072;-72
2024/01/30 00:55:01;;;;;;;4.05;2.83;;;6.70;99.90;;;;;;4992209;28;20662;-73
2024/01/30 00:57:27;;;;;;;3.35;2.63;;;6.70;99.90;;;;;;4991628;28;20131;-72
2024/01/30 00:59:52;;;;;;;4.90;2.80;;;6.70;99.90;;;;;;5010471;28;20042;-72
2024/01/30 01:02:18;;;;;;;5.07;2.47;;;6.60;99.90;;;;;;4992677;28;20121;-73
2024/01/30 01:04:44;;;;;;;3.83;2.33;;;6.70;99.90;;;;;;4989609;28;20049;-72
2024/01/30 01:07:11;;;;;;;4.22;3.22;;;6.60;99.90;;;;;;4993255;28;20121;-72
2024/01/30 01:09:37;;;;;;;4.63;3.55;;;6.60;99.90;;;;;;4984613;28;20104;-72
2024/01/30 01:12:03;;;;;;;2.55;2.05;;;6.60;99.90;;;;;;4992092;28;20049;-73
2024/01/30 01:14:29;;;;;;;4.35;2.92;;;6.60;99.90;;;;;;4970428;28;20405;-72
2024/01/30 01:16:55;;;;;;;5.18;2.92;;;6.50;99.90;;;;;;4992221;28;20092;-72
2024/01/30 01:19:21;;;;;;;4.03;2.55;;;6.50;99.90;;;;;;4990020;28;20095;-73
2024/01/30 01:21:46;;;;;;;3.42;2.05;;;6.50;99.90;;;;;;4991912;28;20489;-72
2024/01/30 01:24:12;;;;;;;3.78;2.80;;;6.50;99.90;;;;;;5008890;28;20065;-73
2024/01/30 01:26:38;;;;;;;3.85;2.03;;;6.60;99.90;;;;;;4975424;28;20331;-72
2024/01/30 01:29:09;;;;;;;4.55;2.67;;;6.50;99.90;;;;;;4975974;28;20034;-72
2024/01/30 01:31:39;;;;;;;4.95;3.28;;;6.50;99.90;;;;;;4991209;28;20128;-72
2024/01/30 01:34:06;;;;;;;3.85;2.83;;;6.50;99.90;;;;;;4986779;28;20037;-72
2024/01/30 01:36:31;;;;;;;4.30;2.70;;;6.50;99.90;;;;;;4989490;28;20034;-72
2024/01/30 01:38:57;;;;;;;5.68;3.00;;;6.50;99.90;;;;;;4989365;28;20378;-73
2024/01/30 01:41:23;;;;;;;3.97;2.80;;;6.60;99.90;;;;;;4985871;28;20045;-73
2024/01/30 01:43:48;;;;;;;3.40;2.58;;;6.60;99.90;;;;;;4989698;28;20125;-72
2024/01/30 01:46:15;;;;;;;4.03;2.25;;;6.60;99.90;;;;;;4990106;28;20375;-72
2024/01/30 01:48:42;;;;;;;6.10;2.40;;;6.60;99.90;;;;;;4993393;28;20461;-73
2024/01/30 01:51:09;;;;;;;5.75;2.80;;;6.50;99.90;;;;;;4989864;28;20042;-72
2024/01/30 01:53:35;;;;;;;4.88;2.95;;;6.60;99.90;;;;;;4991050;28;20062;-73
2024/01/30 01:56:01;;;;;;;6.57;2.95;;;6.70;99.90;;;;;;4987476;28;20044;-73
2024/01/30 01:58:29;;;;;;;9.13;3.53;;;6.70;99.90;;;;;;4989755;28;20038;-73
2024/01/30 02:00:56;;;;;;;4.63;3.33;;;6.70;99.90;;;;;;4983814;28;20038;-72
2024/01/30 02:03:22;;;;;;;3.80;2.33;;;6.70;99.90;;;;;;4988742;28;20474;-73
2024/01/30 02:05:49;;;;;;;2.75;2.15;;;6.60;99.90;;;;;;4989816;28;20084;-72
2024/01/30 02:08:15;;;;;;;4.22;2.90;;;6.60;99.90;;;;;;4992181;28;20609;-73
2024/01/30 02:10:41;;;;;;;6.18;3.25;;;6.60;99.90;;;;;;4975469;28;20129;-72
2024/01/30 02:13:06;;;;;;;4.13;3.50;;;6.50;99.90;;;;;;4992529;28;20124;-73
2024/01/30 02:15:32;;;;;;;2.92;2.20;;;6.50;99.90;;;;;;4988810;28;20112;-72
2024/01/30 02:17:58;;;;;;;3.53;2.50;;;6.50;99.90;;;;;;4974831;28;20038;-72
2024/01/30 02:20:25;;;;;;;4.35;2.45;;;6.40;99.90;;;;;;4984785;28;21176;-72
2024/01/30 02:22:54;;;;;;;2.08;1.65;;;6.30;99.90;;;;;;4985361;28;20038;-73
2024/01/30 02:25:19;;;;;;;4.45;2.65;;;6.30;99.90;;;;;;4969572;28;20052;-72
2024/01/30 02:27:45;;;;;;;2.55;2.03;;;6.40;99.90;;;;;;4987308;28;20401;-72
2024/01/30 02:30:11;;;;;;;3.00;2.05;;;6.30;99.90;;;;;;4990062;28;20717;-72
2024/01/30 02:32:37;;;;;;;5.18;2.53;;;6.30;99.90;;;;;;4986478;28;20046;-73
2024/01/30 02:35:03;;;;;;;6.00;2.97;;;6.30;99.90;;;;;;4988654;28;20056;-72
2024/01/30 02:37:29;;;;;;;4.15;2.35;;;6.20;99.90;;;;;;4986980;28;20034;-72
2024/01/30 02:39:54;;;;;;;3.92;2.58;;;6.30;99.90;;;;;;4987868;28;20548;-72
2024/01/30 02:42:20;;;;;;;3.50;3.03;;;6.10;99.90;;;;;;4987981;28;20124;-73
2024/01/30 02:44:46;;;;;;;7.28;3.05;;;6.10;99.90;;;;;;4989346;28;20042;-73
2024/01/30 02:47:11;;;;;;;3.17;2.42;;;6.10;99.90;;;;;;4987761;28;20038;-72
2024/01/30 02:49:37;;;;;;;4.57;2.85;;;6.10;99.90;;;;;;4972213;28;20034;-73
2024/01/30 02:52:03;;;;;;;3.42;2.38;;;6.10;99.90;;;;;;4989743;28;20407;-72
2024/01/30 02:54:30;;;;;;;2.75;2.15;;;6.10;99.90;;;;;;4988886;28;20096;-72
2024/01/30 02:56:56;;;;;;;3.47;2.20;;;6.10;99.90;;;;;;4988753;28;20038;-72
2024/01/30 02:59:21;;;;;;;3.67;2.13;;;6.10;99.90;;;;;;4972468;28;20034;-73
2024/01/30 03:01:47;;;;;;;4.70;2.80;;;6.10;99.90;;;;;;4988858;28;20040;-72
2024/01/30 03:04:13;;;;;;;2.30;1.73;;;6.10;99.90;;;;;;4988669;28;20046;-72
2024/01/30 03:06:44;;;;;;;4.88;2.47;;;6.00;99.90;;;;;;4989847;28;20770;-72
2024/01/30 03:09:10;;;;;;;4.43;3.05;;;6.10;99.90;;;;;;4990344;28;20390;-72
2024/01/30 03:11:36;;;;;;;2.65;1.60;;;6.10;99.90;;;;;;4987304;28;20109;-72
2024/01/30 03:14:01;;;;;;;3.80;2.72;;;6.00;99.90;;;;;;4989316;28;20475;-73
2024/01/30 03:16:27;;;;;;;4.35;1.85;;;6.10;99.90;;;;;;4990463;28;20594;-72
2024/01/30 03:18:53;;;;;;;3.58;2.28;;;6.10;99.90;;;;;;4986642;28;20069;-73
2024/01/30 03:21:18;;;;;;;4.82;2.45;;;6.10;99.90;;;;;;4989729;28;20037;-73
2024/01/30 03:23:44;;;;;;;3.28;2.67;;;6.20;99.90;;;;;;4986331;28;20038;-72
2024/01/30 03:26:10;;;;;;;5.85;3.17;;;6.20;99.90;;;;;;4973177;28;20057;-73
2024/01/30 03:28:36;;;;;;;4.05;2.25;;;6.20;99.90;;;;;;4983252;28;20039;-72
2024/01/30 03:31:02;;;;;;;2.90;2.20;;;6.30;99.90;;;;;;4990705;28;20751;-72
2024/01/30 03:33:28;;;;;;;3.03;1.98;;;6.30;99.90;;;;;;4985391;28;20113;-73
2024/01/30 03:35:53;;;;;;;5.30;3.00;;;6.30;99.90;;;;;;4991734;28;20398;-73
2024/01/30 03:38:19;;;;;;;4.72;2.50;;;6.30;99.90;;;;;;4985107;28;20039;-73
2024/01/30 03:40:45;;;;;;;3.55;3.20;;;6.30;99.90;;;;;;4989800;28;20045;-73
2024/01/30 03:43:11;;;;;;;3.83;2.22;;;6.40;99.90;;;;;;4989545;28;20112;-72
2024/01/30 03:45:37;;;;;;;7.13;2.75;;;6.40;99.90;;;;;;4992264;28;20132;-72
2024/01/30 03:48:02;;;;;;;4.85;2.97;;;6.40;99.90;;;;;;4989139;28;20448;-72
2024/01/30 03:50:28;;;;;;;3.40;2.10;;;6.40;99.90;;;;;;5008986;28;20050;-73
2024/01/30 03:52:54;;;;;;;3.13;2.33;;;6.50;99.90;;;;;;4974358;28;20050;-73
2024/01/30 03:55:19;;;;;;;3.70;2.08;;;6.50;99.90;;;;;;4987019;28;20117;-73
2024/01/30 03:57:45;;;;;;;2.92;2.63;;;6.50;99.90;;;;;;4993504;28;20034;-72
2024/01/30 04:00:11;;;;;;;3.55;2.38;;;6.50;99.90;;;;;;4991785;28;20048;-73
2024/01/30 04:02:37;;;;;;;4.07;2.72;;;6.50;99.90;;;;;;4988598;28;20085;-73
2024/01/30 04:05:03;;;;;;;5.35;3.10;;;6.60;99.90;;;;;;4991683;28;20088;-73
2024/01/30 04:07:29;;;;;;;2.90;2.08;;;6.60;99.90;;;;;;4993161;28;20130;-73
2024/01/30 04:09:54;;;;;;;3.80;2.05;;;6.60;99.90;;;;;;4990447;28;20053;-73
2024/01/30 04:12:20;;;;;;;4.10;2.35;;;6.70;99.90;;;;;;4989487;28;20402;-71
2024/01/30 04:14:46;;;;;;;4.45;2.20;;;6.70;99.90;;;;;;4986825;28;20069;-72
2024/01/30 04:17:11;;;;;;;3.85;2.88;;;6.70;99.90;;;;;;4990059;28;20049;-71
2024/01/30 04:19:38;;;;;;;2.45;1.90;;;6.80;99.90;;;;;;4990874;28;20125;-72
2024/01/30 04:22:04;;;;;;;3.58;2.78;;;6.80;99.90;;;;;;5009440;28;20093;-72
2024/01/30 04:24:30;;;;;;;6.18;2.75;;;6.80;99.90;;;;;;4976673;28;20037;-72
2024/01/30 04:26:55;;;;;;;2.50;2.10;;;6.90;99.90;;;;;;4986781;28;20038;-72
2024/01/30 04:29:22;;;;;;;3.92;2.60;;;6.90;99.90;;;;;;4992407;28;20448;-72
2024/01/30 04:31:48;;;;;;;2.58;2.05;;;7.00;99.90;;;;;;4991012;28;20042;-71
2024/01/30 04:34:13;;;;;;;4.80;2.80;;;7.00;99.90;;;;;;4989739;28;20050;-72
2024/01/30 04:36:39;;;;;;;7.22;2.92;;;7.10;99.90;;;;;;4992733;28;20041;-72
2024/01/30 04:39:05;;;;;;;3.40;2.80;;;7.10;99.90;;;;;;4991742;28;20030;-72
2024/01/30 04:41:32;;;;;;;2.92;2.15;;;7.20;99.90;;;;;;4986693;28;20056;-71
2024/01/30 04:43:58;;;;;;;3.70;2.05;;;7.20;99.90;;;;;;4993124;28;20057;-72
2024/01/30 04:46:23;;;;;;;4.93;2.80;;;7.20;99.90;;;;;;4988366;28;20065;-72
2024/01/30 04:48:49;;;;;;;10.18;2.38;;;7.10;99.90;;;;;;4975805;28;20475;-72
2024/01/30 04:51:15;;;;;;;4.97;3.08;;;7.20;99.90;;;;;;4992514;28;20137;-72
2024/01/30 04:53:40;;;;;;;2.53;2.13;;;7.20;99.90;;;;;;4992854;28;20054;-72
2024/01/30 04:56:06;;;;;;;3.72;2.10;;;7.20;99.90;;;;;;4975027;28;20529;-72
2024/01/30 04:58:32;;;;;;;4.63;2.60;;;7.20;99.90;;;;;;4976100;28;20038;-72
2024/01/30 05:00:58;;;;;;;3.88;1.85;;;7.20;99.90;;;;;;4990066;28;20096;-72
2024/01/30 05:03:24;;;;;;;7.25;2.85;;;7.30;99.90;;;;;;4975913;28;20048;-72
2024/01/30 05:05:49;;;;;;;4.22;2.40;;;7.30;99.90;;;;;;4991104;28;20045;-72
2024/01/30 05:08:15;;;;;;;3.30;1.88;;;7.30;99.90;;;;;;4990453;28;20410;-72
2024/01/30 05:10:41;;;;;;;4.10;1.90;;;7.30;99.90;;;;;;4989613;28;20517;-72
2024/01/30 05:13:07;;;;;;;5.07;2.80;;;7.30;99.90;;;;;;4973782;28;20037;-72
2024/01/30 05:15:32;;;;;;;3.88;2.33;;;7.30;99.90;;;;;;4991569;28;20053;-72
2024/01/30 05:17:58;;;;;;;5.95;2.85;;;7.30;99.90;;;;;;4986553;28;20389;-72
2024/01/30 05:20:24;;;;;;;2.92;2.03;;;7.40;99.90;;;;;;4990753;28;20490;-72
2024/01/30 05:22:49;;;;;;;4.13;2.22;;;7.40;99.90;;;;;;4967754;28;20042;-72
2024/01/30 05:25:15;;;;;;;4.63;2.72;;;7.40;99.90;;;;;;4991722;28;20085;-72
2024/01/30 05:27:41;;;;;;;4.13;1.98;;;7.50;99.90;;;;;;4975309;28;20053;-72
2024/01/30 05:30:07;;;;;;;4.88;2.08;;;7.40;99.90;;;;;;5007759;28;20074;-72
2024/01/30 05:32:33;;;;;;;4.70;2.38;;;7.50;99.90;;;;;;4992681;28;20052;-72
2024/01/30 05:34:59;;;;;;;2.60;2.17;;;7.40;99.90;;;;;;4973834;28;20428;-72
2024/01/30 05:37:24;;;;;;;4.10;2.20;;;7.50;99.90;;;;;;4984820;28;20034;-73
2024/01/30 05:39:50;;;;;;;3.90;3.33;;;7.40;99.90;;;;;;4987921;28;20053;-72
2024/01/30 05:42:16;;;;;;;6.78;2.30;;;7.50;99.90;;;;;;4987362;28;20046;-72
2024/01/30 05:44:42;;;;;;;4.63;2.03;;;7.50;99.90;;;;;;5006307;28;20438;-72
2024/01/30 05:47:08;;;;;;;3.83;1.83;;;7.60;99.90;;;;;;4972919;28;20084;-72
2024/01/30 05:49:34;;;;;;;3.05;2.00;;;7.50;99.90;;;;;;4989271;28;20042;-72
2024/01/30 05:52:03;;;;;;;3.78;2.35;;;7.60;99.90;;;;;;4991162;28;20046;-72
2024/01/30 05:54:28;;;;;;;4.22;2.55;;;7.60;99.90;;;;;;4987688;28;20133;-72
2024/01/30 05:56:54;;;;;;;3.72;2.30;;;7.50;99.90;;;;;;4988316;28;20427;-72
2024/01/30 05:59:20;;;;;;;4.47;2.03;;;7.60;99.90;;;;;;4973319;28;20042;-72
2024/01/30 06:01:47;;;;;;;9.30;3.05;;;7.50;99.90;;;;;;4988461;28;20045;-72
2024/01/30 06:04:13;;;;;;;2.92;1.80;;;7.50;99.90;;;;;;4985517;28;20057;-71
2024/01/30 06:06:38;;;;;;;5.13;2.78;;;7.50;99.90;;;;;;4992436;28;20042;-72
2024/01/30 06:09:04;;;;;;;4.82;2.25;;;7.50;99.90;;;;;;4987470;28;20046;-72
2024/01/30 06:11:30;;;;;;;3.70;2.28;;;7.50;99.90;;;;;;5008386;28;20470;-72
2024/01/30 06:13:55;;;;;;;8.48;2.92;;;7.50;99.90;;;;;;4983857;28;20654;-72
2024/01/30 06:16:22;;;;;;;6.60;3.30;;;7.50;99.90;;;;;;4991303;28;20030;-72
2024/01/30 06:18:48;;;;;;;2.92;1.60;;;7.50;99.90;;;;;;4986125;28;20037;-71
2024/01/30 06:21:14;;;;;;;5.85;2.63;;;7.50;99.90;;;;;;4991150;28;20038;-72
2024/01/30 06:23:39;;;;;;;3.03;1.98;;;7.50;99.90;;;;;;4988404;28;20063;-72
2024/01/30 06:26:07;;;;;;;3.42;2.40;;;7.50;99.90;;;;;;4986352;28;20031;-72
2024/01/30 06:28:32;;;;;;;5.40;1.73;;;7.60;99.90;;;;;;4987948;28;20041;-72
2024/01/30 06:31:00;;;;;;;2.20;1.63;;;7.60;99.90;;;;;;4991263;28;20096;-72
2024/01/30 06:33:26;;;;;;;8.80;2.33;;;7.60;99.90;;;;;;4989078;28;20034;-72
2024/01/30 06:35:51;;;;;;;3.55;2.05;;;7.60;99.90;;;;;;4987912;28;20036;-71
2024/01/30 06:38:17;;;;;;;3.03;1.85;;;7.60;99.90;;;;;;4990459;28;20100;-71
2024/01/30 06:40:43;;;;;;;3.17;2.17;;;7.70;99.90;;;;;;4968864;28;20483;-71
2024/01/30 06:43:09;;;;;;;3.50;2.30;;;7.70;99.90;;;;;;4989669;28;20164;-71
2024/01/30 06:45:35;;;;;;;3.15;2.15;;;7.70;99.90;;;;;;4970586;28;20454;-71
2024/01/30 06:48:01;;;;;;;3.72;2.17;;;7.70;99.90;;;;;;5008887;28;20077;-71
2024/01/30 06:50:27;;;;;;;6.70;3.20;;;7.70;99.90;;;;;;4986870;28;20041;-71
2024/01/30 06:52:52;;;;;;;2.85;2.20;;;7.70;99.90;;;;;;4985762;28;20585;-72
2024/01/30 06:55:18;;;;;;;3.42;2.00;;;7.70;99.90;;;;;;4986605;28;20125;-72
2024/01/30 06:57:44;;;;;;;9.57;2.60;;;7.70;99.90;;;;;;4967521;28;20035;-72
2024/01/30 07:00:10;;;;;;;2.55;1.98;;;7.70;99.90;;;;;;4966209;28;20034;-72
2024/01/30 07:02:36;;;;;;;3.22;1.85;;;7.70;99.90;;;;;;4970364;28;20037;-72
2024/01/30 07:05:02;;;;;;;4.97;2.45;;;7.70;99.90;;;;;;4985609;28;20049;-72
2024/01/30 07:07:28;;;;;;;5.68;2.58;;;7.80;99.90;;;;;;4985021;28;20540;-71
2024/01/30 07:09:56;;;;;;;4.75;1.95;;;7.80;99.90;;;;;;4982560;28;20044;-71
2024/01/30 07:12:25;;;;;;;3.63;1.83;;;7.80;99.90;;;;;;4970873;28;20241;-72
2024/01/30 07:14:52;;;;;;;4.53;2.05;;;7.80;99.90;;;;;;4987395;28;20220;-72
2024/01/30 07:17:18;;;;;;;2.70;2.13;;;7.80;99.90;;;;;;4985798;28;20045;-73
2024/01/30 07:19:43;;;;;;;7.57;3.25;;;7.80;99.90;;;;;;4989416;28;20046;-72
2024/01/30 07:22:09;;;;;;;4.07;1.85;;;7.90;99.90;;;;;;4975442;28;20041;-72
2024/01/30 07:24:35;;;;;;;3.80;2.22;;;7.90;99.90;;;;;;4974454;28;20057;-73
2024/01/30 07:27:01;;;;;;;2.95;2.47;;;7.90;99.90;;;;;;4987143;28;20046;-73
2024/01/30 07:29:27;;;;;;;6.05;1.50;;;7.90;99.90;;;;;;4993164;28;20128;-73
2024/01/30 07:31:53;;;;;;;3.78;2.10;;;8.00;99.90;;;;;;4974409;28;20176;-73
2024/01/30 07:34:19;;;;;;;3.58;2.15;;;8.00;99.90;;;;;;4991279;28;20523;-73
2024/01/30 07:36:44;;;;;;;3.60;2.05;;;8.00;99.90;;;;;;4986146;28;20038;-73
2024/01/30 07:39:10;;;;;;;3.40;2.33;;;8.00;99.90;;;;;;4989848;28;20041;-72
2024/01/30 07:41:36;;;;;;;6.53;2.63;;;8.10;99.90;;;;;;4990550;28;20030;-72
2024/01/30 07:44:02;;;;;;;4.13;1.98;;;8.10;99.90;;;;;;4993696;28;20064;-72
2024/01/30 07:46:28;;;;;;;3.45;2.33;;;8.10;99.90;;;;;;4987466;28;20034;-72
2024/01/30 07:48:55;;;;;;;2.90;2.53;;;8.10;99.90;;;;;;4991399;28;20103;-73
2024/01/30 07:51:21;;;;;;;3.03;2.40;;;8.20;99.90;;;;;;4967345;28;20042;-72
2024/01/30 07:53:53;;;;;;;3.63;2.00;;;8.20;99.90;;;;;;4993190;28;20050;-72
2024/01/30 07:56:19;;;;;;;3.75;2.15;;;8.20;99.90;;;;;;4989433;28;20045;-72
2024/01/30 07:58:44;;;;;;;3.60;1.85;;;8.20;99.90;;;;;;4989659;28;20427;-73
2024/01/30 08:01:10;;;;;;;2.55;1.90;;;8.20;99.90;;;;;;4987947;28;20034;-72
2024/01/30 08:03:36;;;;;;;1.35;1.02;;;8.20;99.90;;;;;;4991446;28;20038;-72
2024/01/30 08:06:03;;;;;;;2.92;2.17;;;8.30;99.90;;;;;;4994390;28;20433;-73
2024/01/30 08:08:28;;;;;;;4.97;2.35;;;8.30;99.90;;;;;;4995002;28;20041;-72
2024/01/30 08:10:54;;;;;;;4.13;2.45;;;8.30;99.90;;;;;;4993918;28;20041;-73
2024/01/30 08:13:20;;;;;;;4.25;2.55;;;8.40;99.90;;;;;;4986213;28;20049;-72
2024/01/30 08:15:45;;;;;;;3.38;1.70;;;8.40;99.90;;;;;;4976021;28;20133;-72
2024/01/30 08:18:11;;;;;;;5.57;2.38;;;8.40;99.90;;;;;;4990122;28;20038;-73
2024/01/30 08:20:37;;;;;;;3.45;2.28;;;8.50;99.90;;;;;;4990741;28;20056;-73
2024/01/30 08:23:02;;;;;;;3.95;2.38;;;8.50;99.90;;;;;;4991439;28;20033;-72
2024/01/30 08:25:28;;;;;;;2.88;1.90;;;8.60;99.90;;;;;;4992344;28;20544;-73
2024/01/30 08:27:54;;;;;;;3.50;2.35;;;8.60;99.90;;;;;;4997078;28;20375;-72
2024/01/30 08:30:19;;;;;;;2.60;2.08;;;8.60;99.90;;;;;;4991922;28;20470;-72
2024/01/30 08:32:45;;;;;;;6.80;2.05;;;8.70;99.90;;;;;;4993842;28;20033;-73
2024/01/30 08:35:13;;;;;;;2.90;1.67;;;8.70;99.90;;;;;;4991029;28;20030;-72
2024/01/30 08:37:39;;;;;;;5.20;2.58;;;8.70;99.90;;;;;;4990551;28;20035;-73
2024/01/30 08:40:05;;;;;;;2.47;1.58;;;8.80;99.90;;;;;;4992389;28;20472;-72
2024/01/30 08:42:31;;;;;;;3.42;1.67;;;8.80;99.90;;;;;;4989575;28;20068;-72
2024/01/30 08:44:57;;;;;;;3.10;1.83;;;8.90;99.90;;;;;;4992587;28;20042;-70
2024/01/30 08:47:23;;;;;;;2.33;1.67;;;8.90;99.90;;;;;;5009735;28;20054;-72
2024/01/30 08:49:48;;;;;;;5.05;1.67;;;9.00;99.90;;;;;;4988380;28;20049;-72
2024/01/30 08:52:14;;;;;;;2.50;1.63;;;9.00;99.90;;;;;;4989188;28;20112;-71
2024/01/30 08:54:40;;;;;;;5.65;1.80;;;9.00;99.90;;;;;;4991380;28;20054;-72
2024/01/30 08:57:05;;;;;;;3.60;2.03;;;9.10;99.90;;;;;;4988331;28;20169;-72
2024/01/30 08:59:31;;;;;;;4.95;1.65;;;9.10;99.90;;;;;;4992011;28;20034;-71
2024/01/30 09:01:58;;;;;;;5.28;2.03;;;9.20;99.90;;;;;;4991298;28;20041;-72
2024/01/30 09:04:24;;;;;;;2.45;1.40;;;9.20;99.90;;;;;;4988563;28;20037;-71
2024/01/30 09:06:50;;;;;;;3.90;2.13;;;9.30;99.90;;;;;;4993798;28;20041;-71
2024/01/30 09:09:16;;;;;;;5.10;1.75;;;9.30;99.90;;;;;;4974257;28;20042;-72
2024/01/30 09:11:41;;;;;;;3.13;2.20;;;9.40;99.90;;;;;;4988451;28;20125;-71
2024/01/30 09:14:07;;;;;;;10.05;2.50;;;9.40;99.90;;;;;;4991451;28;20449;-72
2024/01/30 09:16:34;;;;;;;2.63;1.67;;;9.50;99.90;;;;;;4991785;28;20037;-71
2024/01/30 09:18:59;;;;;;;3.03;1.95;;;9.50;99.90;;;;;;4988156;28;20559;-72
2024/01/30 09:21:25;;;;;;;2.88;1.40;;;9.50;99.90;;;;;;4992979;28;20034;-72
2024/01/30 09:23:54;;;;;;;2.28;1.70;;;9.50;99.90;;;;;;4992222;28;20494;-72
2024/01/30 09:26:19;;;;;;;3.55;2.22;;;9.50;99.90;;;;;;4970537;28;20130;-72
2024/01/30 09:28:45;;;;;;;3.28;1.70;;;9.50;99.90;;;;;;4991824;28;20128;-71
2024/01/30 09:31:12;;;;;;;4.13;2.60;;;9.50;99.90;;;;;;4985105;28;20081;-72
2024/01/30 09:33:38;;;;;;;3.25;1.85;;;9.50;99.90;;;;;;4991505;28;20096;-72
2024/01/30 09:36:06;;;;;;;2.67;1.75;;;9.60;99.90;;;;;;4991413;28;20050;-71
2024/01/30 09:38:31;;;;;;;3.78;2.03;;;9.70;99.90;;;;;;4993642;28;20117;-71
2024/01/30 09:41:08;;;;;;;3.25;1.60;;;9.60;99.90;;;;;;4992756;28;20129;-73
2024/01/30 09:43:34;;;;;;;3.05;2.05;;;9.70;99.90;;;;;;4979402;28;20035;-72
2024/01/30 09:46:03;;;;;;;2.38;1.70;;;9.80;99.90;;;;;;4991495;28;20880;-72
2024/01/30 09:48:30;;;;;;;6.32;2.45;;;9.90;99.90;;;;;;4991956;28;20100;-72
2024/01/30 09:50:57;;;;;;;3.25;2.20;;;9.90;99.90;;;;;;4987276;28;20480;-72
2024/01/30 09:53:23;;;;;;;6.43;2.40;;;10.00;99.90;;;;;;4988378;28;20148;-72
2024/01/30 09:55:50;;;;;;;7.80;2.88;;;10.10;99.90;;;;;;4971175;28;20600;-72
2024/01/30 09:58:16;;;;;;;2.05;1.20;;;10.20;99.90;;;;;;4990874;28;20473;-72
2024/01/30 10:00:42;;;;;;;3.08;1.65;;;10.20;99.90;;;;;;4970505;28;20113;-72
2024/01/30 10:03:09;;;;;;;3.13;1.77;;;10.20;99.90;;;;;;4988718;28;20517;-73
2024/01/30 10:05:37;;;;;;;1.88;1.42;;;10.30;99.90;;;;;;4991741;28;20117;-72
2024/01/30 10:08:08;;;;;;;5.55;1.92;;;10.30;99.90;;;;;;4990476;28;20061;-72
2024/01/30 10:10:34;;;;;;;5.60;1.75;;;10.30;99.90;;;;;;4988843;28;20052;-71
2024/01/30 10:13:00;;;;;;;1.98;1.42;;;10.30;99.90;;;;;;4974776;28;20056;-72
2024/01/30 10:15:28;;;;;;;5.32;1.92;;;10.40;99.90;;;;;;4989936;28;20043;-72
2024/01/30 10:17:54;;;;;;;3.72;1.83;;;10.50;99.90;;;;;;4992066;28;20129;-72
2024/01/30 10:20:22;;;;;;;3.42;1.67;;;10.50;99.90;;;;;;4990082;28;21546;-72
2024/01/30 10:22:49;;;;;;;2.30;1.63;;;10.60;99.90;;;;;;4988536;28;20147;-72
2024/01/30 10:25:15;;;;;;;3.45;1.60;;;10.70;99.90;;;;;;4987795;28;20042;-72
2024/01/30 10:27:41;;;;;;;2.60;1.80;;;10.80;99.90;;;;;;4988132;28;20555;-71
2024/01/30 10:30:08;;;;;;;2.70;1.67;;;10.80;99.90;;;;;;4988510;28;20049;-72
2024/01/30 10:32:33;;;;;;;3.65;1.77;;;10.90;99.90;;;;;;4990021;28;20046;-72
2024/01/30 10:34:59;;;;;;;1.98;1.70;;;11.00;99.90;;;;;;4972956;28;20572;-72
2024/01/30 10:37:26;;;;;;;3.83;2.13;;;10.90;99.90;;;;;;4973440;28;20042;-72
2024/01/30 10:39:56;;;;;;;3.75;2.15;;;11.00;99.90;;;;;;4991161;28;20617;-72
2024/01/30 10:42:26;;;;;;;4.07;2.33;;;11.10;99.90;;;;;;4986134;28;20050;-72
2024/01/30 10:44:55;;;;;;;3.72;1.58;;;11.10;99.90;;;;;;4973077;28;20041;-72
2024/01/30 10:47:28;;;;;;;6.50;2.30;;;11.10;99.90;;;;;;4988934;28;20156;-72
2024/01/30 10:49:55;;;;;;;5.80;1.90;;;11.10;99.90;;;;;;4989730;28;20048;-72
2024/01/30 10:52:23;;;;;;;3.15;2.15;;;11.10;99.90;;;;;;4988185;28;20057;-72
2024/01/30 10:54:51;;;;;;;4.80;2.45;;;11.10;99.90;;;;;;4989865;28;20120;-72
2024/01/30 10:57:17;;;;;;;4.35;1.77;;;11.10;99.90;;;;;;4987736;28;20037;-72
2024/01/30 10:59:45;;;;;;;7.30;1.77;;;11.10;99.90;;;;;;4991625;28;20137;-72
2024/01/30 11:02:11;;;;;;;2.90;1.55;;;11.10;99.90;;;;;;4989305;28;20050;-72
2024/01/30 11:04:43;;;;;;;4.15;1.85;;;11.10;99.90;;;;;;4989961;28;20045;-72
2024/01/30 11:07:16;;;;;;;3.50;1.85;;;11.10;99.90;;;;;;4991752;28;20042;-73
2024/01/30 11:09:49;;;;;;;3.67;2.45;;;11.10;99.90;;;;;;4976764;28;20041;-72
2024/01/30 11:12:15;;;;;;;3.30;1.90;;;11.10;99.90;;;;;;4984963;28;20053;-72
2024/01/30 11:14:41;;;;;;;5.90;2.13;;;11.20;99.90;;;;;;4979503;28;20038;-72
2024/01/30 11:17:09;;;;;;;3.50;2.03;;;11.20;99.90;;;;;;4990063;28;20602;-72
2024/01/30 11:19:35;;;;;;;5.95;2.60;;;11.30;99.90;;;;;;4992444;28;20038;-72
2024/01/30 11:22:01;;;;;;;5.10;2.40;;;11.30;99.90;;;;;;5007609;28;20112;-73
2024/01/30 11:24:27;;;;;;;2.35;1.60;;;11.30;99.90;;;;;;4972250;28;20050;-72
2024/01/30 11:27:00;;;;;;;2.97;1.83;;;11.30;99.90;;;;;;4988810;28;20041;-73
2024/01/30 11:29:27;;;;;;;4.85;2.55;;;11.40;99.90;;;;;;4984160;28;20405;-73
2024/01/30 11:31:55;;;;;;;4.65;2.85;;;11.40;99.90;;;;;;4990060;28;20038;-73
2024/01/30 11:34:23;;;;;;;4.28;2.40;;;11.40;99.90;;;;;;4981841;28;20129;-73
2024/01/30 11:36:58;;;;;;;2.92;1.98;;;11.40;99.90;;;;;;4968746;28;20041;-72
2024/01/30 11:39:35;;;;;;;7.93;2.70;;;11.40;99.90;;;;;;4983208;28;20131;-73
2024/01/30 11:42:04;;;;;;;2.80;1.98;;;11.40;99.90;;;;;;4988251;28;20038;-73
2024/01/30 11:44:30;;;;;;;6.57;2.60;;;11.50;99.90;;;;;;4987601;28;20046;-72
2024/01/30 11:46:56;;;;;;;6.82;2.42;;;11.50;99.90;;;;;;4991286;28;20100;-73
2024/01/30 11:49:23;;;;;;;5.57;2.20;;;11.60;99.90;;;;;;4981976;28;20124;-73
2024/01/30 11:51:49;;;;;;;5.60;2.33;;;11.70;99.90;;;;;;4984645;28;20046;-73
2024/01/30 11:54:16;;;;;;;7.00;2.45;;;11.70;99.90;;;;;;4985765;28;20069;-72
2024/01/30 11:56:43;;;;;;;3.50;2.03;;;11.80;99.90;;;;;;4985387;28;20046;-73
2024/01/30 11:59:08;;;;;;;2.88;2.10;;;11.80;99.90;;;;;;4987466;28;20041;-73
2024/01/30 12:01:34;;;;;;;2.47;1.92;;;11.90;99.90;;;;;;4987773;28;20377;-73
2024/01/30 12:04:00;;;;;;;3.13;2.53;;;12.00;99.90;;;;;;4981754;28;20477;-73
2024/01/30 12:06:26;;;;;;;3.22;2.00;;;12.00;99.90;;;;;;4984998;28;20354;-73
2024/01/30 12:08:59;;;;;;;2.60;2.08;;;11.90;99.90;;;;;;4970179;28;20038;-73
2024/01/30 12:11:26;;;;;;;2.70;1.92;;;11.90;99.90;;;;;;4989527;28;20037;-72
2024/01/30 12:13:53;;;;;;;3.58;1.98;;;11.80;99.90;;;;;;4988056;28;20034;-73
2024/01/30 12:16:19;;;;;;;3.30;1.90;;;11.70;99.90;;;;;;4992362;28;20496;-72
2024/01/30 12:18:44;;;;;;;3.00;1.48;;;11.70;99.90;;;;;;5006703;28;20123;-72
2024/01/30 12:21:10;;;;;;;3.38;1.67;;;11.60;99.90;;;;;;4974988;28;20498;-72
2024/01/30 12:23:36;;;;;;;3.25;1.42;;;11.50;99.90;;;;;;4988850;28;20120;-72
2024/01/30 12:26:06;;;;;;;2.10;0.85;;;11.50;99.90;;;;;;5009323;28;20052;-73
2024/01/30 12:28:33;;;;;;;5.43;1.35;;;11.30;99.90;;;;;;4985504;28;20053;-73
2024/01/30 12:31:03;;;;;;;5.38;1.33;;;11.30;99.90;;;;;;4994093;28;20041;-73
2024/01/30 12:33:30;;;;;;;4.45;1.00;;;11.20;99.90;;;;;;4988631;28;20044;-73
2024/01/30 12:35:59;;;;;;;0.90;0.65;;;11.30;99.90;;;;;;4991950;28;20041;-73
2024/01/30 12:38:25;;;;;;;0.60;0.52;;;11.30;99.90;;;;;;4987758;28;20038;-73
2024/01/30 12:41:00;;;;;;;2.13;0.85;;;11.20;99.90;;;;;;4991764;28;20045;-73
2024/01/30 12:43:25;;;;;;;0.80;0.60;;;11.20;99.90;;;;;;4990208;28;20552;-73
2024/01/30 12:45:53;;;;;;;1.23;0.43;;;11.10;99.90;;;;;;4990731;28;20034;-73
2024/01/30 12:48:18;;;;;;;0.85;0.50;;;11.10;99.90;;;;;;4976540;28;20050;-73
2024/01/30 12:50:44;;;;;;;0.20;0.20;;;11.00;99.90;;;;;;4974082;28;20112;-73